createdAt,value
2023-02-11T00:01:34.295Z,23.65
2023-02-11T00:07:26.570Z,14.77
2023-02-11T00:19:59.122Z,13.60
2023-02-11T00:23:05.005Z,14.77
2023-02-11T00:31:36.907Z,13.43
2023-02-11T00:34:25.863Z,12.77
2023-02-11T00:37:16.101Z,12.90
2023-02-11T00:53:16.797Z,11.20
2023-02-11T00:56:23.852Z,10.80
2023-02-11T00:59:21.093Z,12.32
2023-02-11T01:02:23.562Z,11.38
2023-02-11T01:11:19.443Z,11.35
2023-02-11T01:30:06.789Z,10.30
2023-02-11T01:38:32.415Z,12.23
2023-02-11T01:41:12.675Z,9.88
2023-02-11T01:44:20.046Z,10.38
2023-02-11T01:53:33.549Z,8.77
2023-02-11T01:56:17.295Z,9.40
2023-02-11T02:02:32.965Z,9.43
2023-02-11T02:05:58.109Z,8.48
2023-02-11T02:08:56.778Z,8.88
2023-02-11T02:11:38.438Z,9.05
2023-02-11T02:17:03.982Z,10.55
2023-02-11T02:19:52.047Z,10.68
2023-02-11T02:28:47.909Z,12.32
2023-02-11T02:31:33.616Z,9.40
2023-02-11T02:34:32.488Z,11.23
2023-02-11T02:37:51.312Z,13.07
2023-02-11T02:41:08.125Z,13.88
2023-02-11T02:44:13.112Z,12.45
2023-02-11T02:57:10.825Z,13.40
2023-02-11T02:59:21.747Z,12.57
2023-02-11T03:08:02.837Z,14.38
2023-02-11T03:14:03.877Z,12.80
2023-02-11T03:17:02.808Z,12.75
2023-02-11T03:19:41.860Z,13.60
2023-02-11T03:22:44.518Z,13.55
2023-02-11T03:28:21.413Z,13.20
2023-02-11T03:38:45.334Z,22.25
2023-02-11T03:51:11.340Z,13.63
2023-02-11T03:57:01.228Z,14.68
2023-02-11T04:10:18.818Z,15.40
2023-02-11T04:13:33.424Z,14.88
2023-02-11T04:19:30.595Z,14.52
2023-02-11T04:32:29.784Z,13.52
2023-02-11T04:38:56.060Z,14.10
2023-02-11T05:00:55.546Z,18.15
2023-02-11T05:07:16.282Z,14.55
2023-02-11T05:16:04.810Z,14.90
2023-02-11T05:24:43.865Z,16.13
2023-02-11T05:27:23.290Z,13.93
2023-02-11T05:29:58.040Z,16.10
2023-02-11T05:32:53.645Z,16.92
2023-02-11T05:36:07.613Z,15.05
2023-02-11T05:38:58.808Z,16.95
2023-02-11T05:45:04.673Z,16.02
2023-02-11T05:47:47.708Z,18.15
2023-02-11T05:56:24.921Z,16.70
2023-02-11T06:08:55.577Z,17.40
2023-02-11T06:11:36.316Z,17.15
2023-02-11T06:17:46.238Z,17.27
2023-02-11T06:23:51.291Z,17.33
2023-02-11T06:26:35.962Z,20.38
2023-02-11T06:29:14.834Z,15.57
2023-02-11T06:31:56.227Z,19.02
2023-02-11T06:34:32.570Z,13.85
2023-02-11T06:37:05.996Z,19.63
2023-02-11T06:39:41.669Z,18.33
2023-02-11T06:42:11.762Z,18.52
2023-02-11T06:44:53.097Z,18.35
2023-02-11T06:47:30.705Z,17.08
2023-02-11T06:57:12.463Z,16.15
2023-02-11T07:21:48.808Z,17.55
2023-02-11T07:34:15.009Z,30.60
2023-02-11T07:37:19.593Z,36.95
2023-02-11T07:43:45.224Z,16.35
2023-02-11T07:49:56.483Z,19.42
2023-02-11T07:52:54.632Z,21.70
2023-02-11T07:55:54.218Z,19.35
2023-02-11T07:58:47.620Z,21.88
2023-02-11T08:01:15.768Z,21.48
2023-02-11T08:03:43.000Z,19.98
2023-02-11T08:06:18.506Z,22.55
2023-02-11T08:08:45.293Z,20.55
2023-02-11T08:11:22.560Z,22.20
2023-02-11T08:17:04.203Z,20.42
2023-02-11T08:26:41.397Z,17.17
2023-02-11T08:35:27.284Z,20.70
2023-02-11T08:37:59.332Z,19.88
2023-02-11T08:40:26.262Z,21.25
2023-02-11T08:42:53.275Z,19.08
2023-02-11T08:45:20.527Z,22.27
2023-02-11T08:47:47.383Z,23.58
2023-02-11T08:50:14.318Z,20.75
2023-02-11T08:52:41.066Z,18.30
2023-02-11T08:55:37.739Z,20.02
2023-02-11T08:58:47.143Z,17.40
2023-02-11T09:04:16.692Z,18.88
2023-02-11T09:06:47.065Z,23.38
2023-02-11T09:09:14.668Z,27.63
2023-02-11T09:11:42.696Z,19.90
2023-02-11T09:14:20.001Z,19.75
2023-02-11T09:16:48.791Z,30.95
2023-02-11T09:19:18.821Z,25.40
2023-02-11T09:21:45.786Z,22.33
2023-02-11T09:24:12.671Z,22.88
2023-02-11T09:26:42.942Z,20.85
2023-02-11T09:29:42.214Z,18.02
2023-02-11T09:32:09.983Z,23.65
2023-02-11T09:34:36.974Z,24.80
2023-02-11T09:37:10.080Z,23.27
2023-02-11T09:39:42.496Z,24.70
2023-02-11T09:42:26.817Z,28.75
2023-02-11T09:44:54.154Z,27.73
2023-02-11T09:47:42.916Z,21.83
2023-02-11T09:50:14.111Z,21.52
2023-02-11T09:52:45.893Z,22.38
2023-02-11T09:55:24.457Z,24.17
2023-02-11T09:58:24.569Z,33.25
2023-02-11T10:01:05.522Z,22.70
2023-02-11T10:03:49.289Z,21.45
2023-02-11T10:06:23.947Z,30.05
2023-02-11T10:09:08.339Z,25.10
2023-02-11T10:11:51.885Z,20.83
2023-02-11T10:14:32.825Z,21.08
2023-02-11T10:17:36.654Z,20.15
2023-02-11T10:20:11.008Z,21.38
2023-02-11T10:22:56.171Z,22.60
2023-02-11T10:27:53.101Z,18.98
2023-02-11T10:30:43.975Z,19.60
2023-02-11T10:33:46.080Z,20.98
2023-02-11T10:36:14.258Z,22.38
2023-02-11T10:38:42.607Z,20.85
2023-02-11T10:41:16.362Z,22.08
2023-02-11T10:43:43.941Z,19.45
2023-02-11T10:46:16.917Z,20.38
2023-02-11T10:48:46.933Z,20.50
2023-02-11T10:51:14.713Z,20.48
2023-02-11T10:54:38.167Z,17.17
2023-02-11T10:57:14.179Z,21.75
2023-02-11T10:59:48.710Z,20.30
2023-02-11T11:02:26.021Z,20.83
2023-02-11T11:05:15.989Z,22.25
2023-02-11T11:11:05.185Z,20.95
2023-02-11T11:13:36.154Z,21.83
2023-02-11T11:19:27.404Z,19.10
2023-02-11T11:21:55.823Z,20.10
2023-02-11T11:24:41.561Z,26.15
2023-02-11T11:27:17.793Z,25.92
2023-02-11T11:29:56.809Z,26.25
2023-02-11T11:32:27.523Z,25.27
2023-02-11T11:34:58.549Z,24.05
2023-02-11T11:37:37.857Z,25.77
2023-02-11T11:40:13.525Z,23.25
2023-02-11T11:42:40.625Z,22.05
2023-02-11T11:45:26.789Z,22.67
2023-02-11T11:48:02.508Z,20.73
2023-02-11T11:50:39.798Z,20.73
2023-02-11T11:53:38.353Z,20.17
2023-02-11T11:56:12.642Z,22.55
2023-02-11T11:58:53.921Z,17.27
2023-02-11T12:01:20.628Z,14.98
2023-02-11T12:03:58.234Z,19.75
2023-02-11T12:06:56.877Z,20.15
2023-02-11T12:09:46.315Z,18.98
2023-02-11T12:12:31.804Z,19.55
2023-02-11T12:27:35.345Z,19.02
2023-02-11T12:30:16.046Z,19.55
2023-02-11T12:32:56.183Z,16.55
2023-02-11T12:35:28.565Z,21.55
2023-02-11T12:37:58.646Z,25.08
2023-02-11T12:40:52.221Z,22.30
2023-02-11T12:43:24.857Z,17.10
2023-02-11T12:46:20.824Z,27.35
2023-02-11T12:49:36.216Z,30.05
2023-02-11T12:54:32.105Z,17.58
2023-02-11T12:57:31.905Z,25.52
2023-02-11T13:00:08.008Z,39.90
2023-02-11T13:03:10.696Z,35.42
2023-02-11T13:23:00.340Z,26.42
2023-02-11T13:28:29.408Z,26.27
2023-02-11T13:31:20.144Z,29.50
2023-02-11T13:37:54.648Z,25.65
2023-02-11T13:40:30.802Z,35.67
2023-02-11T13:43:27.325Z,31.73
2023-02-11T13:49:05.062Z,26.08
2023-02-11T13:52:03.451Z,20.88
2023-02-11T13:55:09.285Z,24.65
2023-02-11T14:10:57.195Z,33.83
2023-02-11T14:13:35.510Z,27.25
2023-02-11T14:16:41.419Z,25.15
2023-02-11T14:21:51.096Z,23.30
2023-02-11T14:24:19.948Z,26.77
2023-02-11T14:27:24.532Z,23.67
2023-02-11T14:30:09.532Z,21.02
2023-02-11T14:32:57.801Z,23.30
2023-02-11T14:35:27.357Z,21.20
2023-02-11T14:38:32.894Z,27.13
2023-02-11T14:41:12.293Z,51.75
2023-02-11T14:43:40.975Z,46.20
2023-02-11T14:46:08.890Z,34.35
2023-02-11T14:48:51.278Z,29.60
2023-02-11T14:51:36.504Z,27.98
2023-02-11T14:54:22.927Z,26.50
2023-02-11T14:57:45.599Z,31.65
2023-02-11T15:00:18.209Z,23.77
2023-02-11T15:02:45.661Z,28.38
2023-02-11T15:05:43.420Z,26.60
2023-02-11T15:08:18.228Z,28.60
2023-02-11T15:10:49.276Z,27.73
2023-02-11T15:13:58.272Z,27.67
2023-02-11T15:16:32.439Z,26.00
2023-02-11T15:21:46.098Z,24.13
2023-02-11T15:24:25.628Z,26.52
2023-02-11T15:27:01.227Z,25.67
2023-02-11T15:29:29.750Z,23.23
2023-02-11T15:32:10.528Z,27.52
2023-02-11T15:34:37.918Z,30.95
2023-02-11T15:37:06.359Z,27.42
2023-02-11T15:39:35.837Z,31.88
2023-02-11T15:42:52.557Z,29.65
2023-02-11T15:48:42.381Z,31.77
2023-02-11T15:55:28.623Z,31.48
2023-02-11T15:58:09.814Z,31.20
2023-02-11T16:03:48.956Z,24.60
2023-02-11T16:10:40.046Z,26.80
2023-02-11T16:13:32.928Z,26.10
2023-02-11T16:16:33.971Z,22.42
2023-02-11T16:19:16.190Z,24.10
2023-02-11T16:21:45.677Z,23.63
2023-02-11T16:24:24.949Z,45.40
2023-02-11T16:26:53.618Z,31.98
2023-02-11T16:29:30.489Z,37.30
2023-02-11T16:32:07.728Z,28.98
2023-02-11T16:34:34.747Z,26.77
2023-02-11T16:37:09.781Z,28.25
2023-02-11T16:39:44.475Z,32.22
2023-02-11T16:42:46.192Z,33.38
2023-02-11T16:45:47.092Z,27.80
2023-02-11T16:48:20.072Z,34.63
2023-02-11T16:50:51.511Z,30.88
2023-02-11T16:53:27.134Z,32.22
2023-02-11T16:56:05.939Z,32.33
2023-02-11T16:58:39.258Z,28.55
2023-02-11T17:01:14.281Z,35.50
2023-02-11T17:03:46.179Z,33.20
2023-02-11T17:06:22.689Z,30.75
2023-02-11T17:08:52.293Z,33.53
2023-02-11T17:11:20.164Z,37.33
2023-02-11T17:14:25.168Z,35.15
2023-02-11T17:17:12.179Z,32.60
2023-02-11T17:19:58.486Z,31.15
2023-02-11T17:22:25.444Z,36.83
2023-02-11T17:24:52.356Z,28.02
2023-02-11T17:27:19.415Z,23.65
2023-02-11T17:29:49.004Z,26.88
2023-02-11T17:32:18.740Z,26.15
2023-02-11T17:34:46.073Z,26.50
2023-02-11T17:37:31.256Z,31.33
2023-02-11T17:42:25.643Z,28.52
2023-02-11T17:44:55.677Z,32.47
2023-02-11T17:47:22.706Z,28.13
2023-02-11T17:49:49.524Z,26.48
2023-02-11T17:52:36.755Z,26.13
2023-02-11T17:55:30.842Z,31.52
2023-02-11T18:01:22.736Z,30.40
2023-02-11T18:11:28.811Z,49.22
2023-02-11T18:27:17.984Z,38.47
2023-02-11T18:28:57.697Z,93.78
2023-02-11T18:31:11.732Z,56.60
2023-02-11T18:37:27.894Z,32.67
2023-02-11T18:40:30.449Z,31.05
2023-02-11T18:43:11.994Z,25.27
2023-02-11T18:45:43.449Z,29.23
2023-02-11T18:48:11.085Z,26.17
2023-02-11T18:50:40.371Z,27.95
2023-02-11T18:53:22.142Z,28.70
2023-02-11T18:56:09.190Z,24.60
2023-02-11T18:58:37.859Z,28.15
2023-02-11T19:37:16.045Z,25.58
2023-02-11T19:39:46.866Z,25.48
2023-02-11T19:42:19.148Z,27.15
2023-02-11T19:44:51.665Z,24.13
2023-02-11T19:47:19.669Z,26.33
2023-02-11T19:52:38.617Z,24.02
2023-02-11T19:59:19.680Z,23.27
2023-02-11T20:05:48.812Z,26.42
2023-02-11T20:08:32.867Z,27.65
2023-02-11T20:11:07.100Z,25.10
2023-02-11T20:23:54.976Z,26.60
2023-02-11T20:30:03.195Z,26.15
2023-02-11T20:32:38.285Z,27.58
2023-02-11T20:35:12.273Z,27.13
2023-02-11T20:37:53.586Z,29.50
2023-02-11T20:40:20.784Z,28.13
2023-02-11T20:42:55.192Z,31.77
2023-02-11T20:45:22.723Z,29.95
2023-02-11T20:58:49.161Z,26.98
2023-02-11T21:02:02.538Z,30.65
2023-02-11T21:11:35.399Z,25.20
2023-02-11T21:14:03.556Z,23.60
2023-02-11T21:16:58.169Z,24.20
2023-02-11T21:38:04.916Z,23.48
2023-02-11T21:47:01.292Z,21.80
2023-02-11T21:57:13.927Z,24.63
2023-02-11T22:03:42.190Z,23.17
2023-02-11T22:14:39.102Z,33.83
2023-02-11T22:41:30.235Z,21.25
2023-02-11T22:47:24.754Z,25.73
2023-02-11T22:54:38.742Z,20.73
2023-02-11T22:59:22.133Z,31.17
2023-02-11T23:02:43.017Z,29.50
2023-02-11T23:08:56.207Z,22.50
2023-02-11T23:14:56.314Z,15.98
2023-02-11T23:18:04.334Z,17.35
2023-02-11T23:20:31.250Z,16.00
2023-02-11T23:23:05.467Z,20.52
2023-02-11T23:25:44.798Z,16.20
2023-02-11T23:28:59.963Z,17.60
2023-02-11T23:34:31.568Z,13.50
2023-02-11T23:37:17.017Z,12.73
2023-02-11T23:46:40.017Z,16.27
